createdAt,value
2023-03-13T00:01:40.901Z,1.90
2023-03-13T00:04:08.933Z,1.30
2023-03-13T00:06:38.000Z,1.58
2023-03-13T00:09:08.462Z,1.80
2023-03-13T00:11:36.345Z,1.98
2023-03-13T00:14:05.046Z,2.97
2023-03-13T00:16:34.709Z,1.60
2023-03-13T00:19:02.544Z,1.70
2023-03-13T00:21:30.393Z,3.47
2023-03-13T00:24:00.074Z,1.70
2023-03-13T00:26:29.122Z,1.20
2023-03-13T00:28:57.394Z,3.03
2023-03-13T00:31:28.176Z,1.55
2023-03-13T00:34:00.954Z,3.42
2023-03-13T00:36:33.831Z,2.45
2023-03-13T00:39:04.461Z,2.70
2023-03-13T00:41:33.137Z,1.50
2023-03-13T00:44:01.035Z,4.18
2023-03-13T00:46:30.350Z,1.40
2023-03-13T00:48:58.302Z,4.20
2023-03-13T00:51:27.336Z,0.90
2023-03-13T00:53:56.767Z,1.98
2023-03-13T00:56:24.382Z,1.33
2023-03-13T00:58:52.560Z,1.02
2023-03-13T01:01:24.578Z,3.47
2023-03-13T01:04:02.175Z,3.40
2023-03-13T01:06:33.396Z,2.80
2023-03-13T01:09:01.784Z,3.97
2023-03-13T01:11:32.498Z,1.88
2023-03-13T01:14:03.136Z,2.78
2023-03-13T01:16:32.864Z,4.85
2023-03-13T01:19:05.917Z,7.90
2023-03-13T01:21:34.132Z,2.80
2023-03-13T01:24:02.103Z,3.35
2023-03-13T01:26:29.773Z,7.05
2023-03-13T01:28:57.700Z,5.38
2023-03-13T01:31:31.542Z,3.72
2023-03-13T01:34:02.793Z,3.47
2023-03-13T01:36:30.919Z,4.95
2023-03-13T01:39:01.046Z,2.38
2023-03-13T01:41:31.254Z,6.63
2023-03-13T01:43:58.918Z,2.45
2023-03-13T01:46:32.282Z,6.50
2023-03-13T01:49:35.771Z,2.67
2023-03-13T01:52:31.172Z,3.08
2023-03-13T01:55:34.438Z,5.57
2023-03-13T01:58:02.434Z,1.83
2023-03-13T02:00:35.467Z,1.25
2023-03-13T02:03:09.056Z,3.60
2023-03-13T02:05:38.806Z,1.45
2023-03-13T02:08:23.347Z,1.35
2023-03-13T02:11:02.274Z,0.55
2023-03-13T02:13:30.323Z,1.40
2023-03-13T02:15:58.156Z,0.73
2023-03-13T02:18:26.624Z,0.68
2023-03-13T02:20:59.929Z,0.45
2023-03-13T02:23:49.445Z,0.32
2023-03-13T02:26:17.285Z,0.30
2023-03-13T02:28:44.957Z,0.90
2023-03-13T02:33:44.732Z,0.03
2023-03-13T02:36:17.095Z,0.20
2023-03-13T02:38:55.879Z,0.00
2023-03-13T02:41:25.720Z,0.47
2023-03-13T02:43:55.252Z,5.40
2023-03-13T02:46:23.007Z,0.55
2023-03-13T02:48:56.772Z,0.32
2023-03-13T02:51:35.543Z,0.38
2023-03-13T02:54:10.678Z,0.20
2023-03-13T02:56:40.735Z,0.52
2023-03-13T02:59:09.780Z,0.00
2023-03-13T03:01:40.532Z,0.10
2023-03-13T03:04:08.195Z,0.85
2023-03-13T03:06:35.836Z,1.08
2023-03-13T03:09:05.616Z,0.63
2023-03-13T03:11:36.333Z,0.55
2023-03-13T03:14:09.280Z,0.10
2023-03-13T03:16:41.375Z,0.00
2023-03-13T03:19:11.043Z,0.45
2023-03-13T03:21:39.104Z,0.20
2023-03-13T03:24:07.231Z,0.63
2023-03-13T03:26:35.503Z,0.90
2023-03-13T03:29:08.248Z,1.20
2023-03-13T03:31:37.604Z,1.75
2023-03-13T03:34:05.164Z,0.30
2023-03-13T03:36:32.757Z,2.05
2023-03-13T03:39:01.901Z,6.40
2023-03-13T03:41:31.095Z,3.17
2023-03-13T03:43:59.532Z,1.42
2023-03-13T03:46:34.812Z,2.05
2023-03-13T03:49:03.085Z,8.02
2023-03-13T03:51:30.617Z,4.90
2023-03-13T03:53:58.244Z,2.85
2023-03-13T03:56:25.956Z,5.63
2023-03-13T03:58:56.855Z,8.32
2023-03-13T04:01:37.542Z,5.95
2023-03-13T04:04:06.040Z,5.80
2023-03-13T04:06:33.811Z,8.88
2023-03-13T04:09:02.989Z,6.13
2023-03-13T04:11:31.273Z,8.45
2023-03-13T04:13:59.019Z,7.95
2023-03-13T04:16:27.283Z,8.25
2023-03-13T04:18:56.404Z,7.75
2023-03-13T04:21:26.352Z,6.03
2023-03-13T04:24:00.187Z,5.78
2023-03-13T04:26:28.325Z,5.05
2023-03-13T04:28:57.982Z,7.75
2023-03-13T04:31:40.407Z,10.10
2023-03-13T04:34:37.187Z,8.70
2023-03-13T04:37:23.156Z,6.05
2023-03-13T04:39:59.437Z,8.52
2023-03-13T04:42:59.055Z,10.25
2023-03-13T04:45:55.882Z,7.78
2023-03-13T04:48:23.505Z,6.97
2023-03-13T04:51:13.745Z,8.07
2023-03-13T04:53:57.310Z,3.38
2023-03-13T04:56:43.531Z,17.00
2023-03-13T04:59:26.877Z,15.40
2023-03-13T05:02:13.831Z,5.90
2023-03-13T05:05:08.176Z,13.90
2023-03-13T05:07:54.298Z,14.73
2023-03-13T05:10:47.442Z,13.15
2023-03-13T05:13:14.948Z,10.98
2023-03-13T05:16:11.291Z,12.57
2023-03-13T05:18:57.443Z,9.07
2023-03-13T05:21:39.980Z,14.55
2023-03-13T05:24:36.693Z,17.15
2023-03-13T05:27:12.542Z,10.52
2023-03-13T05:29:51.546Z,12.57
2023-03-13T05:32:39.530Z,14.35
2023-03-13T05:35:35.935Z,15.13
2023-03-13T05:38:38.871Z,18.52
2023-03-13T05:41:24.013Z,17.17
2023-03-13T05:43:54.607Z,17.17
2023-03-13T05:46:34.093Z,15.80
2023-03-13T05:49:22.186Z,24.83
2023-03-13T05:52:04.821Z,16.52
2023-03-13T05:54:45.910Z,20.30
2023-03-13T05:57:19.511Z,21.25
2023-03-13T06:00:17.304Z,17.13
2023-03-13T06:03:00.100Z,23.35
2023-03-13T06:05:34.770Z,18.40
2023-03-13T06:08:07.319Z,7.38
2023-03-13T06:10:34.942Z,18.02
2023-03-13T06:13:17.177Z,10.73
2023-03-13T06:15:54.966Z,21.40
2023-03-13T06:18:38.645Z,9.55
2023-03-13T06:21:06.317Z,13.23
2023-03-13T06:23:33.892Z,12.60
2023-03-13T06:26:01.696Z,19.13
2023-03-13T06:28:29.298Z,16.90
2023-03-13T06:31:05.122Z,8.65
2023-03-13T06:33:33.440Z,12.57
2023-03-13T06:36:02.344Z,15.15
2023-03-13T06:38:30.863Z,12.90
2023-03-13T06:40:58.489Z,14.63
2023-03-13T06:43:26.809Z,9.13
2023-03-13T06:45:54.346Z,15.75
2023-03-13T06:48:24.910Z,16.75
2023-03-13T06:50:52.684Z,15.93
2023-03-13T06:53:21.055Z,12.50
2023-03-13T06:55:51.595Z,9.77
2023-03-13T06:58:31.550Z,20.13
2023-03-13T07:01:05.846Z,22.45
2023-03-13T07:03:33.871Z,18.02
2023-03-13T07:06:02.008Z,20.42
2023-03-13T07:08:29.869Z,21.45
2023-03-13T07:11:03.057Z,20.73
2023-03-13T07:13:31.016Z,18.75
2023-03-13T07:16:07.601Z,19.20
2023-03-13T07:18:35.660Z,20.63
2023-03-13T07:21:07.660Z,23.05
2023-03-13T07:23:35.831Z,18.67
2023-03-13T07:26:08.120Z,14.70
2023-03-13T07:28:37.773Z,11.85
2023-03-13T07:31:08.580Z,24.95
2023-03-13T07:33:36.188Z,17.70
2023-03-13T07:36:04.759Z,22.40
2023-03-13T07:38:32.401Z,19.80
2023-03-13T07:41:00.183Z,26.38
2023-03-13T07:43:29.508Z,23.48
2023-03-13T07:46:02.770Z,14.32
2023-03-13T07:48:34.795Z,9.57
2023-03-13T07:51:04.079Z,9.55
2023-03-13T07:53:32.032Z,15.63
2023-03-13T07:56:04.302Z,9.93
2023-03-13T07:58:34.544Z,12.07
2023-03-13T08:01:08.613Z,11.38
2023-03-13T08:03:37.194Z,6.47
2023-03-13T08:06:08.409Z,11.68
2023-03-13T08:08:36.795Z,7.28
2023-03-13T08:11:07.663Z,10.88
2023-03-13T08:13:37.570Z,10.23
2023-03-13T08:16:06.502Z,7.80
2023-03-13T08:18:35.776Z,9.30
2023-03-13T08:21:07.956Z,9.10
2023-03-13T08:23:36.052Z,7.05
2023-03-13T08:26:09.325Z,6.70
2023-03-13T08:28:38.150Z,10.45
2023-03-13T08:31:17.330Z,11.35
2023-03-13T08:33:46.823Z,13.25
2023-03-13T08:36:43.851Z,4.57
2023-03-13T08:39:15.984Z,4.45
2023-03-13T08:41:45.998Z,9.30
2023-03-13T08:46:47.350Z,6.40
2023-03-13T08:49:17.535Z,8.18
2023-03-13T08:51:45.357Z,10.27
2023-03-13T08:54:12.889Z,6.82
2023-03-13T08:56:41.663Z,6.47
2023-03-13T08:59:10.092Z,5.30
2023-03-13T09:01:37.809Z,4.35
2023-03-13T09:04:06.234Z,4.82
2023-03-13T09:06:35.963Z,4.93
2023-03-13T09:09:05.466Z,8.20
2023-03-13T09:11:33.881Z,8.23
2023-03-13T09:14:01.746Z,6.13
2023-03-13T09:16:31.171Z,4.05
2023-03-13T09:18:59.368Z,2.05
2023-03-13T09:21:35.155Z,3.55
2023-03-13T09:24:03.091Z,4.90
2023-03-13T09:26:30.823Z,7.25
2023-03-13T09:28:58.732Z,3.88
2023-03-13T09:31:30.083Z,2.90
2023-03-13T09:33:58.141Z,6.28
2023-03-13T09:36:26.490Z,3.38
2023-03-13T09:38:57.255Z,2.22
2023-03-13T09:41:35.069Z,1.80
2023-03-13T09:44:14.783Z,3.10
2023-03-13T09:46:45.306Z,1.75
2023-03-13T09:49:37.913Z,2.17
2023-03-13T09:52:17.784Z,2.90
2023-03-13T09:55:12.965Z,5.88
2023-03-13T09:58:19.053Z,3.33
2023-03-13T10:00:58.396Z,2.25
2023-03-13T10:03:30.515Z,2.80
2023-03-13T10:06:22.628Z,2.92
2023-03-13T10:08:51.116Z,1.63
2023-03-13T10:11:29.899Z,3.10
2023-03-13T10:14:07.636Z,1.35
2023-03-13T10:16:59.226Z,1.30
2023-03-13T10:19:37.803Z,2.63
2023-03-13T10:22:20.607Z,3.60
2023-03-13T10:24:59.441Z,2.80
2023-03-13T10:27:27.511Z,0.85
2023-03-13T10:29:55.009Z,1.70
2023-03-13T10:32:22.687Z,1.35
2023-03-13T10:34:51.161Z,0.82
2023-03-13T10:37:25.690Z,1.45
2023-03-13T10:39:53.954Z,2.15
2023-03-13T10:42:27.402Z,1.00
2023-03-13T10:45:05.837Z,1.95
2023-03-13T10:47:34.819Z,0.52
2023-03-13T10:50:04.201Z,2.60
2023-03-13T10:52:51.115Z,3.15
2023-03-13T10:55:21.399Z,2.30
2023-03-13T10:58:04.664Z,7.07
2023-03-13T11:00:38.786Z,3.28
2023-03-13T11:03:14.461Z,3.60
2023-03-13T11:05:43.305Z,6.80
2023-03-13T11:08:13.765Z,5.63
2023-03-13T11:10:56.902Z,3.63
2023-03-13T11:13:43.457Z,6.88
2023-03-13T11:16:21.495Z,6.57
2023-03-13T11:19:14.298Z,2.20
2023-03-13T11:21:48.372Z,5.13
2023-03-13T11:24:32.528Z,2.30
2023-03-13T11:27:05.073Z,2.30
2023-03-13T11:29:53.985Z,5.60
2023-03-13T11:32:37.456Z,5.20
2023-03-13T11:35:17.920Z,5.55
2023-03-13T11:37:46.401Z,4.40
2023-03-13T11:40:32.777Z,7.75
2023-03-13T11:43:25.866Z,10.77
2023-03-13T11:46:08.840Z,4.10
2023-03-13T11:49:04.924Z,6.15
2023-03-13T11:51:44.790Z,11.52
2023-03-13T11:54:47.699Z,7.90
2023-03-13T11:57:42.162Z,13.23
2023-03-13T12:00:25.157Z,6.13
2023-03-13T12:03:17.348Z,6.97
2023-03-13T12:05:57.454Z,16.10
2023-03-13T12:08:45.456Z,12.85
2023-03-13T12:11:13.345Z,3.97
2023-03-13T12:13:50.053Z,7.88
2023-03-13T12:16:23.945Z,7.60
2023-03-13T12:18:53.755Z,6.40
2023-03-13T12:21:23.326Z,8.40
2023-03-13T12:24:05.202Z,16.33
2023-03-13T12:26:47.175Z,8.18
2023-03-13T12:29:30.095Z,6.93
2023-03-13T12:32:23.698Z,8.32
2023-03-13T12:35:10.098Z,11.68
2023-03-13T12:37:42.804Z,7.15
2023-03-13T12:40:31.258Z,9.15
2023-03-13T12:43:21.842Z,11.10
2023-03-13T12:45:58.576Z,7.25
2023-03-13T12:48:43.508Z,7.28
2023-03-13T12:51:57.530Z,4.78
2023-03-13T12:54:25.034Z,9.85
2023-03-13T12:57:15.929Z,9.07
2023-03-13T12:59:55.454Z,4.03
2023-03-13T13:02:27.357Z,8.65
2023-03-13T13:04:57.811Z,10.20
2023-03-13T13:07:28.434Z,8.60
2023-03-13T13:10:10.847Z,5.75
2023-03-13T13:12:39.674Z,5.68
2023-03-13T13:15:31.139Z,6.25
2023-03-13T13:18:25.725Z,6.93
2023-03-13T13:21:05.131Z,6.40
2023-03-13T13:23:43.754Z,4.63
2023-03-13T13:26:26.807Z,6.28
2023-03-13T13:28:54.855Z,8.18
2023-03-13T13:31:47.491Z,3.17
2023-03-13T13:34:36.385Z,4.78
2023-03-13T13:37:12.811Z,2.90
2023-03-13T13:39:50.212Z,6.35
2023-03-13T13:42:30.727Z,7.85
2023-03-13T13:45:04.717Z,7.00
2023-03-13T13:47:33.767Z,6.18
2023-03-13T13:50:01.965Z,11.10
2023-03-13T13:52:36.725Z,2.60
2023-03-13T13:55:32.218Z,7.82
2023-03-13T13:58:10.807Z,7.15
2023-03-13T14:00:52.853Z,9.82
2023-03-13T14:03:30.165Z,5.60
2023-03-13T14:06:15.066Z,8.98
2023-03-13T14:11:32.401Z,6.07
2023-03-13T14:14:21.580Z,7.47
2023-03-13T14:16:52.551Z,8.93
2023-03-13T14:19:39.975Z,4.78
2023-03-13T14:22:09.843Z,8.18
2023-03-13T14:24:38.051Z,7.20
2023-03-13T14:27:20.000Z,4.45
2023-03-13T14:30:01.614Z,4.45
2023-03-13T14:32:29.375Z,6.47
2023-03-13T14:34:57.238Z,3.22
2023-03-13T14:37:45.717Z,7.20
2023-03-13T14:40:19.305Z,5.82
2023-03-13T14:42:58.705Z,7.45
2023-03-13T14:45:37.175Z,7.13
2023-03-13T14:48:06.602Z,5.80
2023-03-13T14:50:35.238Z,7.32
2023-03-13T14:53:10.715Z,4.63
2023-03-13T14:55:41.164Z,2.92
2023-03-13T14:58:21.365Z,3.10
2023-03-13T15:00:49.735Z,7.43
2023-03-13T15:03:17.395Z,3.47
2023-03-13T15:06:07.474Z,7.78
2023-03-13T15:11:20.030Z,8.07
2023-03-13T15:13:47.700Z,3.70
2023-03-13T15:16:20.503Z,9.02
2023-03-13T15:18:49.564Z,8.98
2023-03-13T15:21:31.038Z,4.15
2023-03-13T15:24:11.053Z,10.20
2023-03-13T15:26:38.718Z,13.93
2023-03-13T15:29:06.437Z,7.13
2023-03-13T15:31:37.507Z,7.35
2023-03-13T15:34:13.435Z,9.13
2023-03-13T15:36:42.510Z,6.30
2023-03-13T15:39:15.415Z,8.13
2023-03-13T15:41:43.069Z,13.93
2023-03-13T15:44:10.895Z,11.80
2023-03-13T15:46:38.560Z,10.00
2023-03-13T15:49:11.336Z,11.48
2023-03-13T15:51:39.108Z,15.98
2023-03-13T15:54:09.492Z,17.75
2023-03-13T15:56:38.881Z,13.30
2023-03-13T15:59:15.054Z,10.93
2023-03-13T16:01:45.165Z,12.10
2023-03-13T16:04:13.385Z,16.10
2023-03-13T16:06:41.005Z,9.88
2023-03-13T16:09:08.770Z,11.23
2023-03-13T16:11:36.335Z,15.38
2023-03-13T16:14:03.969Z,13.15
2023-03-13T16:16:37.333Z,17.10
2023-03-13T16:19:10.185Z,17.60
2023-03-13T16:21:40.347Z,21.17
2023-03-13T16:24:07.968Z,14.15
2023-03-13T16:26:36.212Z,16.52
2023-03-13T16:29:03.874Z,15.90
2023-03-13T16:31:32.635Z,12.75
2023-03-13T16:34:01.202Z,16.05
2023-03-13T16:36:31.353Z,12.27
2023-03-13T16:39:00.794Z,13.43
2023-03-13T16:41:29.292Z,16.13
2023-03-13T16:43:57.287Z,17.15
2023-03-13T16:46:32.174Z,13.93
2023-03-13T16:48:59.842Z,19.63
2023-03-13T16:51:28.521Z,13.52
2023-03-13T16:53:59.758Z,15.48
2023-03-13T16:56:31.389Z,18.45
2023-03-13T16:59:00.871Z,18.35
2023-03-13T17:01:30.030Z,19.42
2023-03-13T17:03:59.529Z,16.50
2023-03-13T17:06:34.183Z,21.20
2023-03-13T17:09:02.584Z,13.18
2023-03-13T17:11:31.078Z,16.38
2023-03-13T17:13:59.644Z,15.07
2023-03-13T17:16:33.425Z,15.23
2023-03-13T17:19:03.558Z,19.23
2023-03-13T17:21:32.712Z,20.97
2023-03-13T17:24:00.836Z,18.07
2023-03-13T17:26:32.331Z,13.48
2023-03-13T17:29:00.826Z,24.40
2023-03-13T17:31:30.234Z,17.33
2023-03-13T17:33:57.980Z,10.60
2023-03-13T17:36:29.225Z,19.25
2023-03-13T17:39:02.557Z,24.83
2023-03-13T17:41:35.056Z,13.77
2023-03-13T17:44:08.203Z,13.43
2023-03-13T17:46:42.335Z,19.70
2023-03-13T17:49:15.129Z,16.90
2023-03-13T17:51:45.104Z,15.77
2023-03-13T17:56:43.885Z,12.35
2023-03-13T17:59:14.950Z,10.25
2023-03-13T18:01:43.243Z,15.50
2023-03-13T18:04:11.933Z,14.77
2023-03-13T18:06:43.066Z,14.25
2023-03-13T18:09:20.005Z,16.52
2023-03-13T18:11:49.214Z,12.10
2023-03-13T18:14:16.944Z,11.77
2023-03-13T18:16:51.089Z,16.88
2023-03-13T18:19:22.783Z,14.90
2023-03-13T18:21:55.540Z,9.38
2023-03-13T18:24:23.327Z,16.30
2023-03-13T18:26:51.485Z,20.50
2023-03-13T18:29:29.463Z,17.23
2023-03-13T18:32:00.602Z,20.13
2023-03-13T18:34:28.718Z,15.15
2023-03-13T18:36:57.165Z,12.20
2023-03-13T18:39:24.705Z,16.38
2023-03-13T18:41:52.909Z,14.52
2023-03-13T18:44:21.135Z,16.35
2023-03-13T18:46:50.679Z,13.25
2023-03-13T18:49:21.772Z,16.02
2023-03-13T18:51:51.234Z,32.08
2023-03-13T18:54:18.785Z,17.65
2023-03-13T18:56:47.877Z,8.80
2023-03-13T18:59:21.820Z,16.47
2023-03-13T19:01:51.255Z,26.40
2023-03-13T19:04:19.870Z,16.50
2023-03-13T19:06:48.260Z,15.95
2023-03-13T19:09:41.658Z,12.70
2023-03-13T19:12:10.929Z,19.30
2023-03-13T19:14:38.612Z,9.68
2023-03-13T19:17:38.766Z,12.57
2023-03-13T19:20:07.966Z,8.45
2023-03-13T19:22:35.546Z,10.82
2023-03-13T19:25:03.173Z,19.60
2023-03-13T19:27:31.666Z,8.18
2023-03-13T19:29:59.370Z,6.72
2023-03-13T19:32:27.327Z,8.77
2023-03-13T19:34:54.956Z,10.55
2023-03-13T19:37:22.627Z,5.97
2023-03-13T19:39:50.205Z,7.95
2023-03-13T19:42:17.730Z,11.32
2023-03-13T19:44:45.700Z,8.25
2023-03-13T19:47:15.741Z,11.02
2023-03-13T19:49:45.419Z,6.57
2023-03-13T19:52:13.056Z,7.28
2023-03-13T19:54:40.938Z,4.78
2023-03-13T19:57:11.181Z,6.22
2023-03-13T19:59:40.078Z,1.23
2023-03-13T20:02:10.069Z,0.63
2023-03-13T20:04:37.967Z,2.17
2023-03-13T20:07:05.493Z,3.53
2023-03-13T20:09:34.792Z,7.72
2023-03-13T20:14:30.723Z,7.05
2023-03-13T20:16:58.334Z,3.17
2023-03-13T20:19:29.252Z,7.63
2023-03-13T20:22:03.432Z,7.68
2023-03-13T20:24:34.386Z,5.30
2023-03-13T20:27:02.641Z,8.95
2023-03-13T20:29:30.587Z,6.95
2023-03-13T20:32:00.413Z,5.28
2023-03-13T20:34:28.244Z,6.22
2023-03-13T20:36:57.131Z,6.07
2023-03-13T20:39:24.742Z,6.72
2023-03-13T20:41:54.529Z,8.88
2023-03-13T20:44:23.155Z,5.35
2023-03-13T20:46:51.163Z,5.55
2023-03-13T20:49:18.806Z,9.02
2023-03-13T20:51:46.317Z,8.40
2023-03-13T20:54:13.922Z,9.98
2023-03-13T20:56:42.108Z,8.45
2023-03-13T20:59:12.737Z,12.23
2023-03-13T21:01:40.460Z,5.85
2023-03-13T21:04:08.033Z,6.75
2023-03-13T21:06:35.605Z,7.43
2023-03-13T21:09:03.189Z,6.15
2023-03-13T21:11:30.921Z,7.72
2023-03-13T21:13:58.601Z,11.20
2023-03-13T21:16:27.419Z,9.82
2023-03-13T21:18:55.268Z,10.52
2023-03-13T21:21:23.036Z,7.10
2023-03-13T21:23:54.149Z,7.75
2023-03-13T21:26:22.497Z,7.63
2023-03-13T21:28:51.137Z,9.90
2023-03-13T21:31:19.858Z,8.25
2023-03-13T21:33:48.557Z,7.60
2023-03-13T21:36:18.528Z,3.53
2023-03-13T21:41:19.939Z,3.80
2023-03-13T21:43:48.476Z,9.60
2023-03-13T21:46:18.247Z,6.28
2023-03-13T21:51:19.154Z,6.97
2023-03-13T21:53:46.700Z,6.20
2023-03-13T21:56:15.770Z,10.35
2023-03-13T21:58:45.432Z,7.40
2023-03-13T22:01:14.173Z,7.00
2023-03-13T22:03:42.115Z,7.47
2023-03-13T22:06:14.964Z,4.15
2023-03-13T22:08:43.170Z,6.95
2023-03-13T22:11:10.790Z,7.78
2023-03-13T22:13:39.127Z,9.73
2023-03-13T22:16:07.432Z,7.82
2023-03-13T22:18:35.065Z,7.68
2023-03-13T22:21:03.230Z,5.00
2023-03-13T22:23:30.829Z,4.25
2023-03-13T22:25:59.402Z,4.63
2023-03-13T22:28:27.528Z,9.02
2023-03-13T22:30:55.261Z,6.50
2023-03-13T22:33:27.457Z,9.85
2023-03-13T22:35:55.188Z,7.15
2023-03-13T22:38:23.023Z,8.10
2023-03-13T22:40:59.338Z,8.57
2023-03-13T22:43:28.176Z,10.63
2023-03-13T22:45:57.340Z,8.57
2023-03-13T22:48:25.664Z,12.02
2023-03-13T22:51:22.301Z,16.35
2023-03-13T22:53:53.084Z,7.05
2023-03-13T22:56:20.689Z,5.05
2023-03-13T22:58:48.304Z,11.65
2023-03-13T23:01:18.639Z,11.15
2023-03-13T23:03:46.342Z,6.65
2023-03-13T23:06:18.091Z,4.78
2023-03-13T23:08:46.549Z,4.68
2023-03-13T23:11:14.808Z,8.27
2023-03-13T23:13:42.426Z,6.80
2023-03-13T23:16:11.240Z,14.00
2023-03-13T23:18:39.734Z,5.93
2023-03-13T23:21:12.787Z,11.20
2023-03-13T23:23:41.999Z,8.15
2023-03-13T23:26:13.176Z,6.32
2023-03-13T23:28:41.402Z,8.05
2023-03-13T23:31:11.836Z,5.47
2023-03-13T23:33:39.918Z,5.03
2023-03-13T23:36:19.213Z,5.18
2023-03-13T23:38:51.112Z,3.83
2023-03-13T23:41:21.785Z,5.78
2023-03-13T23:43:49.940Z,11.43
2023-03-13T23:46:23.224Z,4.25
2023-03-13T23:48:57.687Z,8.45
2023-03-13T23:51:28.185Z,3.67
2023-03-13T23:53:55.786Z,10.57
2023-03-13T23:56:25.408Z,5.40
2023-03-13T23:58:54.650Z,8.88
